Terminal Aerodrome Forecast
Issued by NWS Central Illinois

Home | Current Version | Previous Version | Text Only | Print | Product List | Glossary On
Versions: 1 2 3 4 5 6 7 8 9 10 11 12 13 14 15 16 17 18
000
FTUS43 KILX 231700
TAFSPI
TAF
KSPI 231720Z 2318/2418 03012G20KT P6SM SCT040
      TEMPO 2318/2320 BKN040
     FM232000 03011G18KT P6SM SCT045
     FM240000 03008KT P6SM FEW050
     FM240200 05005KT P6SM SKC
     FM241500 04007KT P6SM FEW045=

USA.gov is the U.S. government's official web portal to all federal, state and local government web resources and services.